Time;durP1;ratioP1;P1;durP2;ratioP2;P2;SDS_P1;SDS_P2;PMS_P1;PMS_P2;Temp;Humidity;BMP_temperature;BMP_pressure;BME280_temperature;BME280_humidity;BME280_pressure;Samples;Min_cycle;Max_cycle;Signal;HPM_P1;HPM_P2
2022/01/12 00:00:47;;;;;;;2.38;2.17;;;;;;;;;;5032598;28;20235;-57
2022/01/12 00:03:13;;;;;;;3.20;2.45;;;;;;;;;;5037373;28;20229;-57
2022/01/12 00:05:39;;;;;;;2.65;2.22;;;;;;;;;;5037609;28;20272;-57
2022/01/12 00:08:07;;;;;;;2.83;2.42;;;;;;;;;;5037911;28;20212;-57
2022/01/12 00:10:33;;;;;;;4.05;2.58;;;;;;;;;;5028342;28;20179;-58
2022/01/12 00:12:59;;;;;;;2.60;2.30;;;;;;;;;;5049801;28;20259;-58
2022/01/12 00:15:25;;;;;;;2.88;2.40;;;;;;;;;;5036893;28;20513;-57
2022/01/12 00:17:51;;;;;;;3.17;2.47;;;;;;;;;;5037436;28;20187;-57
2022/01/12 00:20:17;;;;;;;2.60;2.30;;;;;;;;;;5038881;28;20189;-57
2022/01/12 00:22:44;;;;;;;2.28;2.05;;;;;;;;;;5024815;28;20578;-57
2022/01/12 00:33:13;;;;;;;2.72;2.30;;;;;;;;;;5032009;28;20706;-57
2022/01/12 00:35:41;;;;;;;2.50;2.20;;;;;;;;;;5034803;28;20202;-56
2022/01/12 00:38:07;;;;;;;2.05;1.88;;;;;;;;;;5045204;28;20175;-57
2022/01/12 00:40:33;;;;;;;2.85;2.30;;;;;;;;;;5033991;28;20444;-57
2022/01/12 00:42:59;;;;;;;2.35;1.92;;;;;;;;;;5048861;28;20957;-57
2022/01/12 00:45:25;;;;;;;2.47;2.28;;;;;;;;;;5036865;28;20180;-57
2022/01/12 00:47:51;;;;;;;3.17;2.25;;;;;;;;;;5031166;28;20506;-57
2022/01/12 00:50:18;;;;;;;2.40;2.20;;;;;;;;;;5028429;28;20390;-57
2022/01/12 00:52:44;;;;;;;2.33;2.13;;;;;;;;;;5040815;28;20194;-57
2022/01/12 00:55:10;;;;;;;2.25;2.05;;;;;;;;;;5046495;28;20168;-57
2022/01/12 00:57:36;;;;;;;2.28;1.95;;;;;;;;;;5043100;28;20191;-57
2022/01/12 01:00:03;;;;;;;2.10;1.90;;;;;;;;;;5043002;28;20195;-57
2022/01/12 01:02:30;;;;;;;2.40;2.20;;;;;;;;;;5037098;28;20207;-57
2022/01/12 01:04:56;;;;;;;2.20;2.00;;;;;;;;;;5032377;28;20190;-57
2022/01/12 01:07:22;;;;;;;2.67;2.33;;;;;;;;;;5027287;28;20302;-57
2022/01/12 01:10:00;;;;;;;4.80;2.10;;;;;;;;;;5045102;28;20218;-57
2022/01/12 01:12:27;;;;;;;3.88;2.30;;;;;;;;;;5039832;28;20179;-57
2022/01/12 01:25:46;;;;;;;2.10;1.90;;;;;;;;;;5012654;28;20266;-57
2022/01/12 01:28:13;;;;;;;2.45;2.25;;;;;;;;;;5014022;28;20571;-57
2022/01/12 01:30:40;;;;;;;2.10;1.90;;;;;;;;;;5013045;28;20184;-57
2022/01/12 01:33:08;;;;;;;1.90;1.80;;;;;;;;;;5029351;28;20175;-57
2022/01/12 01:35:36;;;;;;;2.13;1.90;;;;;;;;;;5036972;28;20217;-57
2022/01/12 01:38:03;;;;;;;2.10;1.80;;;;;;;;;;5038833;28;20187;-56
2022/01/12 01:40:29;;;;;;;2.38;2.15;;;;;;;;;;5028912;28;20522;-56
2022/01/12 01:43:11;;;;;;;2.17;1.98;;;;;;;;;;5035976;28;20198;-57
2022/01/12 01:53:53;;;;;;;1.83;1.73;;;;;;;;;;5041956;28;21166;-57
2022/01/12 01:56:19;;;;;;;1.90;1.77;;;;;;;;;;5039842;28;20565;-56
2022/01/12 01:58:46;;;;;;;2.33;2.00;;;;;;;;;;5035041;28;20373;-56
2022/01/12 02:01:12;;;;;;;2.33;1.77;;;;;;;;;;5032910;28;20212;-57
2022/01/12 02:03:38;;;;;;;2.00;1.80;;;;;;;;;;5032510;28;20209;-57
2022/01/12 02:06:07;;;;;;;2.08;1.83;;;;;;;;;;5045817;28;20182;-57
2022/01/12 02:08:33;;;;;;;2.10;1.90;;;;;;;;;;5041990;28;20250;-57
2022/01/12 02:11:00;;;;;;;2.00;1.80;;;;;;;;;;5025962;28;20262;-57
2022/01/12 02:13:26;;;;;;;1.67;1.58;;;;;;;;;;5030662;28;20183;-57
2022/01/12 02:15:54;;;;;;;2.00;1.80;;;;;;;;;;5036176;28;20618;-57
2022/01/12 02:40:18;;;;;;;1.90;1.75;;;;;;;;;;5047106;28;20191;-56
2022/01/12 02:42:48;;;;;;;2.65;1.90;;;;;;;;;;5051054;28;20187;-56
2022/01/12 02:50:57;;;;;;;1.58;1.48;;;;;;;;;;5045661;28;20470;-56
2022/01/12 02:53:42;;;;;;;2.10;1.90;;;;;;;;;;5044394;28;20184;-56
2022/01/12 02:56:08;;;;;;;2.25;2.05;;;;;;;;;;5029062;28;20175;-56
2022/01/12 02:58:34;;;;;;;2.30;2.10;;;;;;;;;;5030870;28;20191;-57
2022/01/12 03:03:30;;;;;;;1.92;1.75;;;;;;;;;;5026442;28;20239;-57
2022/01/12 03:06:02;;;;;;;1.80;1.70;;;;;;;;;;5039053;28;20194;-56
2022/01/12 03:08:36;;;;;;;2.25;1.90;;;;;;;;;;5051592;28;20227;-56
2022/01/12 03:11:02;;;;;;;1.88;1.70;;;;;;;;;;5040990;28;20176;-56
2022/01/12 03:13:28;;;;;;;1.83;1.67;;;;;;;;;;5034016;28;20220;-56
2022/01/12 03:15:55;;;;;;;2.20;1.98;;;;;;;;;;5035672;28;20518;-56
2022/01/12 03:18:21;;;;;;;1.70;1.60;;;;;;;;;;5037374;28;20536;-57
2022/01/12 03:20:47;;;;;;;2.58;2.08;;;;;;;;;;5027321;28;20223;-57
2022/01/12 03:23:15;;;;;;;2.28;1.90;;;;;;;;;;5041726;28;20502;-57
2022/01/12 03:25:41;;;;;;;2.20;1.92;;;;;;;;;;5036526;28;20247;-57
2022/01/12 03:28:07;;;;;;;2.45;1.88;;;;;;;;;;5056107;28;20607;-57
2022/01/12 03:30:47;;;;;;;1.60;1.50;;;;;;;;;;5009871;28;20187;-57
2022/01/12 03:33:36;;;;;;;2.25;2.05;;;;;;;;;;5042768;28;20237;-57
2022/01/12 03:38:46;;;;;;;1.65;1.55;;;;;;;;;;5052265;28;20209;-57
2022/01/12 03:41:12;;;;;;;1.60;1.50;;;;;;;;;;5040316;28;20548;-57
2022/01/12 03:43:38;;;;;;;1.92;1.73;;;;;;;;;;5043444;28;20189;-57
2022/01/12 03:46:04;;;;;;;2.28;1.80;;;;;;;;;;5043746;28;20175;-57
2022/01/12 03:48:30;;;;;;;1.60;1.50;;;;;;;;;;5026249;28;20223;-56
2022/01/12 03:50:56;;;;;;;2.00;1.80;;;;;;;;;;5026391;28;20179;-56
2022/01/12 03:53:23;;;;;;;2.38;1.75;;;;;;;;;;5050183;28;20825;-56
2022/01/12 03:55:49;;;;;;;1.50;1.40;;;;;;;;;;5046550;28;20612;-56
2022/01/12 03:58:15;;;;;;;1.67;1.58;;;;;;;;;;5031630;28;20187;-56
2022/01/12 04:00:41;;;;;;;2.03;1.88;;;;;;;;;;5034191;28;20619;-57
2022/01/12 04:03:08;;;;;;;1.80;1.70;;;;;;;;;;5039558;28;20195;-57
2022/01/12 04:08:19;;;;;;;1.70;1.60;;;;;;;;;;5022446;28;20215;-57
2022/01/12 04:10:46;;;;;;;1.80;1.70;;;;;;;;;;5023067;28;20190;-57
2022/01/12 04:13:13;;;;;;;2.15;1.60;;;;;;;;;;5023283;28;20184;-57
2022/01/12 04:15:39;;;;;;;1.90;1.80;;;;;;;;;;5024367;28;20172;-56
2022/01/12 04:18:05;;;;;;;1.73;1.63;;;;;;;;;;5036348;28;20265;-56
2022/01/12 04:20:31;;;;;;;2.28;1.88;;;;;;;;;;5032188;28;20184;-57
2022/01/12 04:25:41;;;;;;;2.20;2.00;;;;;;;;;;5034248;28;20203;-57
2022/01/12 04:28:07;;;;;;;1.70;1.60;;;;;;;;;;5041606;28;20274;-56
2022/01/12 04:30:34;;;;;;;1.60;1.50;;;;;;;;;;5020732;28;20180;-56
2022/01/12 04:33:00;;;;;;;1.70;1.60;;;;;;;;;;5022635;28;20210;-57
2022/01/12 04:35:31;;;;;;;1.73;1.63;;;;;;;;;;5046926;28;20207;-57
2022/01/12 04:37:57;;;;;;;1.90;1.50;;;;;;;;;;5049629;28;20175;-57
2022/01/12 04:40:23;;;;;;;1.75;1.65;;;;;;;;;;5050459;28;20233;-57
2022/01/12 04:42:49;;;;;;;2.53;1.67;;;;;;;;;;5031861;28;20183;-57
2022/01/12 04:45:37;;;;;;;2.00;1.80;;;;;;;;;;5039332;28;20443;-56
2022/01/12 04:50:42;;;;;;;2.17;1.70;;;;;;;;;;5043099;28;20589;-56
2022/01/12 04:53:08;;;;;;;1.77;1.67;;;;;;;;;;5019894;28;20196;-57
2022/01/12 04:55:34;;;;;;;1.92;1.50;;;;;;;;;;5033807;28;20206;-57
2022/01/12 04:58:00;;;;;;;1.88;1.48;;;;;;;;;;5041936;28;20187;-57
2022/01/12 05:00:27;;;;;;;1.75;1.65;;;;;;;;;;5045252;28;20272;-57
2022/01/12 05:13:36;;;;;;;3.10;1.67;;;;;;;;;;5046555;28;20236;-56
2022/01/12 05:16:02;;;;;;;2.60;1.55;;;;;;;;;;5044323;28;20193;-56
2022/01/12 05:18:29;;;;;;;1.80;1.70;;;;;;;;;;5020653;28;20703;-56
2022/01/12 05:20:55;;;;;;;1.58;1.48;;;;;;;;;;5039222;28;20187;-56
2022/01/12 05:23:21;;;;;;;4.05;1.77;;;;;;;;;;5035450;28;20241;-56
2022/01/12 05:25:47;;;;;;;1.75;1.65;;;;;;;;;;5042201;28;20215;-57
2022/01/12 05:28:14;;;;;;;4.15;2.05;;;;;;;;;;5044797;28;20207;-57
2022/01/12 05:30:40;;;;;;;2.13;1.85;;;;;;;;;;5026120;28;20180;-57
2022/01/12 05:33:06;;;;;;;3.13;1.50;;;;;;;;;;5047025;28;20225;-57
2022/01/12 05:35:33;;;;;;;2.10;1.67;;;;;;;;;;5037144;28;20175;-56
2022/01/12 05:38:00;;;;;;;2.03;1.83;;;;;;;;;;5044756;28;20181;-56
2022/01/12 05:40:26;;;;;;;2.38;1.80;;;;;;;;;;5046463;28;20168;-56
2022/01/12 05:42:54;;;;;;;2.45;1.90;;;;;;;;;;5032977;28;20218;-56
2022/01/12 05:45:21;;;;;;;4.22;1.85;;;;;;;;;;5041730;28;20203;-57
2022/01/12 05:50:14;;;;;;;4.38;2.10;;;;;;;;;;5040036;28;20290;-56
2022/01/12 05:52:40;;;;;;;2.28;1.90;;;;;;;;;;5044581;28;20190;-57
2022/01/12 05:55:07;;;;;;;2.67;1.90;;;;;;;;;;5044643;28;20298;-56
2022/01/12 05:57:33;;;;;;;2.90;1.70;;;;;;;;;;5038538;28;20703;-56
2022/01/12 06:00:00;;;;;;;3.78;1.90;;;;;;;;;;5033847;28;20798;-56
2022/01/12 06:02:26;;;;;;;1.88;1.67;;;;;;;;;;5029552;28;20187;-56
2022/01/12 06:04:52;;;;;;;4.60;2.03;;;;;;;;;;5046019;28;20184;-56
2022/01/12 06:07:18;;;;;;;3.63;1.70;;;;;;;;;;5041087;28;20206;-57
2022/01/12 06:09:44;;;;;;;3.60;2.15;;;;;;;;;;5041033;28;20184;-56
2022/01/12 06:12:10;;;;;;;2.88;1.55;;;;;;;;;;5030829;28;20266;-56
2022/01/12 06:14:36;;;;;;;3.75;1.95;;;;;;;;;;5039403;28;20261;-56
2022/01/12 06:17:02;;;;;;;3.40;1.80;;;;;;;;;;5028178;28;20221;-56
2022/01/12 06:19:28;;;;;;;2.45;1.80;;;;;;;;;;5045956;28;20543;-56
2022/01/12 06:21:54;;;;;;;2.58;1.67;;;;;;;;;;5032563;28;20198;-56
2022/01/12 06:24:20;;;;;;;3.47;2.00;;;;;;;;;;5045855;28;20464;-57
2022/01/12 06:26:47;;;;;;;2.47;2.20;;;;;;;;;;5029096;28;20180;-57
2022/01/12 06:29:24;;;;;;;2.42;1.85;;;;;;;;;;5029668;28;20196;-57
2022/01/12 06:31:51;;;;;;;2.40;1.88;;;;;;;;;;5015797;28;20285;-56
2022/01/12 06:34:17;;;;;;;1.77;1.58;;;;;;;;;;5032628;28;20164;-56
2022/01/12 06:36:43;;;;;;;3.75;1.77;;;;;;;;;;5023054;28;20202;-57
2022/01/12 06:39:11;;;;;;;3.25;1.90;;;;;;;;;;5029438;28;20520;-57
2022/01/12 06:41:38;;;;;;;1.98;1.63;;;;;;;;;;5027432;28;20195;-57
2022/01/12 06:44:05;;;;;;;2.40;1.83;;;;;;;;;;5024359;28;20473;-56
2022/01/12 06:46:32;;;;;;;4.05;2.00;;;;;;;;;;5029847;28;20207;-56
2022/01/12 06:48:59;;;;;;;2.42;1.90;;;;;;;;;;5049579;28;20441;-57
2022/01/12 06:51:25;;;;;;;3.90;1.75;;;;;;;;;;5028336;28;20571;-56
2022/01/12 06:53:53;;;;;;;2.10;1.73;;;;;;;;;;5047930;28;20182;-56
2022/01/12 06:56:19;;;;;;;2.28;1.60;;;;;;;;;;5030620;28;20176;-56
2022/01/12 06:58:45;;;;;;;2.40;1.90;;;;;;;;;;5048329;28;20217;-56
2022/01/12 07:01:11;;;;;;;3.72;2.10;;;;;;;;;;5040241;28;20212;-56
2022/01/12 07:03:37;;;;;;;4.60;2.15;;;;;;;;;;5035013;28;20243;-57
2022/01/12 07:06:04;;;;;;;3.13;1.67;;;;;;;;;;5032592;28;20433;-56
2022/01/12 07:08:32;;;;;;;7.68;1.90;;;;;;;;;;5031655;28;20202;-56
2022/01/12 07:10:58;;;;;;;2.47;1.85;;;;;;;;;;5032026;28;20225;-56
2022/01/12 07:13:24;;;;;;;2.20;1.80;;;;;;;;;;5041429;28;20172;-56
2022/01/12 07:15:50;;;;;;;2.17;1.95;;;;;;;;;;5033420;28;20194;-56
2022/01/12 07:18:19;;;;;;;2.08;1.83;;;;;;;;;;5035069;28;20188;-57
2022/01/12 07:20:45;;;;;;;3.83;1.90;;;;;;;;;;5035125;28;20212;-57
2022/01/12 07:23:11;;;;;;;3.78;2.20;;;;;;;;;;5032770;28;20188;-57
2022/01/12 07:25:37;;;;;;;2.70;1.85;;;;;;;;;;5033515;28;20191;-57
2022/01/12 07:28:03;;;;;;;2.42;1.95;;;;;;;;;;5037480;28;20219;-51
2022/01/12 07:31:35;;;;;;;5.70;1.92;;;;;;;;;;5082434;27;20569;-48
2022/01/12 07:34:01;;;;;;;5.65;2.03;;;;;;;;;;5086539;28;20170;-55
2022/01/12 07:36:27;;;;;;;3.13;2.10;;;;;;;;;;5082210;28;20273;-56
2022/01/12 07:38:55;;;;;;;2.75;1.92;;;;;;;;;;5088742;28;20204;-56
2022/01/12 07:41:21;;;;;;;4.50;2.35;;;;;;;;;;5083608;28;20524;-56
2022/01/12 07:43:47;;;;;;;3.15;1.90;;;;;;;;;;5085909;28;20189;-56
2022/01/12 07:46:13;;;;;;;4.07;2.00;;;;;;;;;;5082750;28;20183;-55
2022/01/12 07:48:39;;;;;;;3.47;2.10;;;;;;;;;;5084598;28;20239;-56
2022/01/12 07:51:05;;;;;;;4.88;2.03;;;;;;;;;;5088634;28;20260;-55
2022/01/12 07:53:31;;;;;;;4.50;2.13;;;;;;;;;;5085173;28;20602;-56
2022/01/12 07:55:57;;;;;;;3.85;2.13;;;;;;;;;;5079022;28;20192;-55
2022/01/12 07:58:23;;;;;;;2.90;1.90;;;;;;;;;;5083427;28;20182;-55
2022/01/12 08:00:50;;;;;;;3.25;2.03;;;;;;;;;;5085657;28;20231;-55
2022/01/12 08:03:16;;;;;;;2.58;1.70;;;;;;;;;;5087467;28;20691;-56
2022/01/12 08:05:44;;;;;;;3.92;2.05;;;;;;;;;;5087738;28;20261;-57
2022/01/12 08:08:11;;;;;;;3.33;2.00;;;;;;;;;;5081585;28;20549;-56
2022/01/12 08:10:38;;;;;;;2.90;2.20;;;;;;;;;;5085201;28;20201;-56
2022/01/12 08:13:04;;;;;;;4.13;1.90;;;;;;;;;;5088731;28;20253;-56
2022/01/12 08:15:30;;;;;;;7.22;2.30;;;;;;;;;;5088528;28;20628;-56
2022/01/12 08:17:56;;;;;;;2.25;2.05;;;;;;;;;;5081342;28;20178;-57
2022/01/12 08:20:26;;;;;;;2.05;1.73;;;;;;;;;;5087167;28;20576;-57
2022/01/12 08:22:52;;;;;;;4.20;1.90;;;;;;;;;;5087745;28;20444;-57
2022/01/12 08:25:18;;;;;;;4.95;2.10;;;;;;;;;;5088109;28;20186;-57
2022/01/12 08:27:44;;;;;;;6.05;2.20;;;;;;;;;;5087979;28;20259;-57
2022/01/12 08:30:18;;;;;;;3.83;2.10;;;;;;;;;;5083305;28;20245;-58
2022/01/12 08:32:45;;;;;;;3.20;2.05;;;;;;;;;;5087939;28;20185;-57
2022/01/12 08:35:12;;;;;;;2.58;2.00;;;;;;;;;;5082699;28;20542;-57
2022/01/12 08:37:38;;;;;;;3.17;2.20;;;;;;;;;;5077806;28;20208;-57
2022/01/12 08:40:04;;;;;;;2.75;1.98;;;;;;;;;;5087022;28;20251;-57
2022/01/12 08:42:30;;;;;;;2.88;2.05;;;;;;;;;;5073501;28;20191;-57
2022/01/12 08:44:59;;;;;;;2.40;1.98;;;;;;;;;;5070593;28;20326;-58
2022/01/12 08:47:25;;;;;;;2.90;2.03;;;;;;;;;;5069877;28;20236;-58
2022/01/12 08:49:51;;;;;;;2.17;1.98;;;;;;;;;;5070876;28;20613;-58
2022/01/12 08:52:17;;;;;;;2.20;1.90;;;;;;;;;;5070529;28;20564;-57
2022/01/12 08:54:43;;;;;;;2.95;2.17;;;;;;;;;;5066258;28;20182;-57
2022/01/12 08:57:10;;;;;;;2.50;2.03;;;;;;;;;;5070451;28;20179;-57
2022/01/12 08:59:36;;;;;;;2.22;2.03;;;;;;;;;;5072041;28;20245;-57
2022/01/12 09:02:02;;;;;;;4.53;2.30;;;;;;;;;;5074410;28;20262;-57
2022/01/12 09:04:28;;;;;;;2.60;2.13;;;;;;;;;;5073455;28;20434;-57
2022/01/12 09:06:57;;;;;;;3.47;2.08;;;;;;;;;;5061801;28;20237;-57
2022/01/12 09:09:24;;;;;;;2.55;2.10;;;;;;;;;;5074318;28;20186;-57
2022/01/12 09:11:50;;;;;;;2.67;2.25;;;;;;;;;;5067494;28;20281;-58
2022/01/12 09:14:18;;;;;;;2.80;1.90;;;;;;;;;;5067693;28;20180;-57
2022/01/12 09:16:44;;;;;;;2.65;2.13;;;;;;;;;;5065610;28;20185;-58
2022/01/12 09:19:10;;;;;;;3.00;2.50;;;;;;;;;;5073656;28;20228;-58
2022/01/12 09:21:36;;;;;;;2.85;2.13;;;;;;;;;;5070496;28;20896;-58
2022/01/12 09:24:02;;;;;;;3.55;2.10;;;;;;;;;;5071119;28;20202;-58
2022/01/12 09:26:28;;;;;;;2.28;2.08;;;;;;;;;;5071708;28;20435;-58
2022/01/12 09:28:55;;;;;;;2.88;2.10;;;;;;;;;;5073914;28;20178;-58
2022/01/12 09:31:20;;;;;;;3.00;2.33;;;;;;;;;;5061911;28;20514;-58
2022/01/12 09:33:49;;;;;;;2.45;2.25;;;;;;;;;;5063864;28;20194;-58
2022/01/12 09:36:15;;;;;;;2.75;2.10;;;;;;;;;;5070423;28;20217;-58
2022/01/12 09:38:41;;;;;;;2.75;2.55;;;;;;;;;;5071836;28;20202;-58
2022/01/12 09:41:07;;;;;;;2.90;1.83;;;;;;;;;;5071961;28;20537;-58
2022/01/12 09:43:36;;;;;;;2.33;2.03;;;;;;;;;;5069475;28;20577;-58
2022/01/12 09:46:02;;;;;;;3.47;2.15;;;;;;;;;;5064182;28;20228;-59
2022/01/12 09:48:33;;;;;;;3.50;2.17;;;;;;;;;;5070526;28;20219;-59
2022/01/12 09:51:01;;;;;;;2.70;2.22;;;;;;;;;;5074195;28;20198;-58
2022/01/12 09:53:29;;;;;;;2.10;1.90;;;;;;;;;;5068349;28;20331;-58
2022/01/12 09:55:55;;;;;;;2.50;1.83;;;;;;;;;;5072185;28;20178;-58
2022/01/12 09:58:21;;;;;;;2.00;1.80;;;;;;;;;;5070643;28;20481;-59
2022/01/12 10:01:01;;;;;;;2.95;2.10;;;;;;;;;;5068358;28;20553;-58
2022/01/12 10:03:27;;;;;;;3.85;2.33;;;;;;;;;;5068589;28;20439;-58
2022/01/12 10:05:54;;;;;;;2.33;2.13;;;;;;;;;;5069596;28;20573;-58
2022/01/12 10:08:20;;;;;;;2.85;2.10;;;;;;;;;;5071094;28;20186;-59
2022/01/12 10:11:01;;;;;;;3.63;2.08;;;;;;;;;;5070204;28;20210;-59
2022/01/12 10:13:27;;;;;;;2.28;1.95;;;;;;;;;;5071673;28;20190;-59
2022/01/12 10:15:53;;;;;;;2.42;2.10;;;;;;;;;;5064800;28;20189;-59
2022/01/12 10:18:20;;;;;;;2.00;1.80;;;;;;;;;;5073008;28;20192;-59
2022/01/12 10:20:47;;;;;;;2.47;2.28;;;;;;;;;;5074095;28;20186;-59
2022/01/12 10:23:15;;;;;;;2.97;2.10;;;;;;;;;;5067511;28;20182;-58
2022/01/12 10:25:46;;;;;;;2.42;2.22;;;;;;;;;;5065331;28;20464;-59
2022/01/12 10:28:13;;;;;;;2.95;1.88;;;;;;;;;;5063940;28;20182;-59
2022/01/12 10:30:39;;;;;;;3.15;2.38;;;;;;;;;;5073654;28;20214;-59
2022/01/12 10:33:07;;;;;;;2.13;1.92;;;;;;;;;;5061584;28;20549;-59
2022/01/12 10:35:35;;;;;;;3.00;2.10;;;;;;;;;;5062282;28;20265;-59
2022/01/12 10:38:15;;;;;;;1.88;1.67;;;;;;;;;;5071091;28;20197;-59
2022/01/12 10:40:47;;;;;;;1.58;1.48;;;;;;;;;;5069922;28;20181;-59
2022/01/12 10:43:25;;;;;;;2.30;1.88;;;;;;;;;;5071090;28;20453;-59
2022/01/12 10:45:51;;;;;;;2.17;1.98;;;;;;;;;;5063416;28;20566;-59
2022/01/12 10:48:17;;;;;;;2.25;1.92;;;;;;;;;;5066535;28;20368;-59
2022/01/12 10:50:57;;;;;;;2.38;1.98;;;;;;;;;;5071307;28;20202;-60
2022/01/12 10:53:33;;;;;;;3.47;2.00;;;;;;;;;;5056925;28;20178;-59
2022/01/12 10:56:00;;;;;;;1.80;1.67;;;;;;;;;;5068890;28;20178;-59
2022/01/12 10:58:26;;;;;;;2.28;2.03;;;;;;;;;;5067648;28;20281;-59
2022/01/12 11:00:52;;;;;;;1.98;1.77;;;;;;;;;;5065813;28;20269;-59
2022/01/12 11:03:18;;;;;;;2.03;1.80;;;;;;;;;;5066947;28;20205;-59
2022/01/12 11:05:45;;;;;;;2.17;1.85;;;;;;;;;;5064542;28;20188;-59
2022/01/12 11:08:11;;;;;;;2.17;1.98;;;;;;;;;;5070711;28;20202;-59
2022/01/12 11:10:37;;;;;;;1.95;1.75;;;;;;;;;;5067569;28;20221;-59
2022/01/12 11:13:03;;;;;;;2.42;1.90;;;;;;;;;;5071023;28;20170;-59
2022/01/12 11:15:29;;;;;;;2.70;1.80;;;;;;;;;;5069573;28;20186;-60
2022/01/12 11:17:55;;;;;;;2.10;1.90;;;;;;;;;;5067667;28;20182;-60
2022/01/12 11:20:22;;;;;;;1.80;1.70;;;;;;;;;;5070660;28;20592;-60
2022/01/12 11:22:48;;;;;;;2.38;1.92;;;;;;;;;;5065125;28;20182;-60
2022/01/12 11:25:22;;;;;;;1.95;1.83;;;;;;;;;;5064800;28;20196;-60
2022/01/12 11:27:51;;;;;;;1.85;1.60;;;;;;;;;;5072217;28;20193;-59
2022/01/12 11:30:22;;;;;;;2.20;1.75;;;;;;;;;;5066926;28;20203;-59
2022/01/12 11:32:58;;;;;;;1.70;1.60;;;;;;;;;;5066714;28;20455;-59
2022/01/12 11:35:26;;;;;;;2.22;1.98;;;;;;;;;;5068804;28;20183;-60
2022/01/12 11:37:57;;;;;;;1.85;1.65;;;;;;;;;;5067431;28;20519;-60
2022/01/12 11:40:32;;;;;;;1.77;1.67;;;;;;;;;;5072069;28;20182;-62
2022/01/12 11:42:58;;;;;;;2.53;2.00;;;;;;;;;;5059182;28;20185;-61
2022/01/12 11:45:24;;;;;;;2.17;1.98;;;;;;;;;;5066353;28;20580;-61
2022/01/12 11:47:51;;;;;;;3.40;1.85;;;;;;;;;;5066045;28;20190;-62
2022/01/12 11:50:17;;;;;;;6.35;1.90;;;;;;;;;;5070689;28;20210;-62
2022/01/12 11:52:43;;;;;;;2.17;1.70;;;;;;;;;;5071255;28;20186;-62
2022/01/12 11:55:12;;;;;;;3.25;2.05;;;;;;;;;;5069590;28;20182;-62
2022/01/12 11:57:41;;;;;;;2.20;1.83;;;;;;;;;;5065671;28;20194;-62
2022/01/12 12:00:14;;;;;;;3.42;1.85;;;;;;;;;;5069038;28;20181;-62
2022/01/12 12:02:49;;;;;;;2.85;1.88;;;;;;;;;;5058791;28;20187;-62
2022/01/12 12:05:22;;;;;;;2.53;2.00;;;;;;;;;;5063056;28;20719;-62
2022/01/12 12:07:49;;;;;;;2.53;1.90;;;;;;;;;;5067526;28;20214;-62
2022/01/12 12:10:16;;;;;;;1.90;1.65;;;;;;;;;;5069696;28;20195;-62
2022/01/12 12:12:42;;;;;;;2.63;1.85;;;;;;;;;;5066022;28;20546;-62
2022/01/12 12:15:09;;;;;;;1.80;1.60;;;;;;;;;;5071388;28;20756;-61
2022/01/12 12:17:39;;;;;;;6.90;1.98;;;;;;;;;;5072116;28;20194;-61
2022/01/12 12:20:07;;;;;;;3.88;1.90;;;;;;;;;;5072772;28;20608;-61
2022/01/12 12:22:34;;;;;;;2.22;1.70;;;;;;;;;;5075408;28;20187;-62
2022/01/12 12:25:03;;;;;;;4.00;1.80;;;;;;;;;;5074238;28;20440;-62
2022/01/12 12:27:30;;;;;;;3.42;1.88;;;;;;;;;;5072412;28;20288;-61
2022/01/12 12:29:56;;;;;;;2.03;1.73;;;;;;;;;;5072855;28;20221;-61
2022/01/12 12:32:39;;;;;;;2.28;1.85;;;;;;;;;;5064133;28;20187;-61
2022/01/12 12:35:09;;;;;;;2.17;1.70;;;;;;;;;;5067280;28;20186;-62
2022/01/12 12:37:40;;;;;;;5.38;1.80;;;;;;;;;;5062465;28;20228;-62
2022/01/12 12:40:12;;;;;;;2.33;1.67;;;;;;;;;;5074887;28;20228;-62
2022/01/12 12:42:38;;;;;;;1.70;1.60;;;;;;;;;;5069381;28;20577;-62
2022/01/12 12:45:05;;;;;;;3.53;1.83;;;;;;;;;;5073274;28;20448;-62
2022/01/12 12:47:32;;;;;;;2.33;1.88;;;;;;;;;;5072056;28;20186;-62
2022/01/12 12:50:01;;;;;;;7.60;1.67;;;;;;;;;;5074982;28;20203;-62
2022/01/12 12:52:27;;;;;;;2.97;1.60;;;;;;;;;;5069354;28;20179;-62
2022/01/12 12:54:53;;;;;;;3.97;1.60;;;;;;;;;;5068779;28;20178;-64
2022/01/12 12:57:21;;;;;;;3.30;1.90;;;;;;;;;;5072339;28;20193;-62
2022/01/12 12:59:51;;;;;;;2.10;1.58;;;;;;;;;;5075809;28;20174;-62
2022/01/12 13:02:17;;;;;;;2.08;1.73;;;;;;;;;;5074361;28;20527;-62
2022/01/12 13:04:43;;;;;;;27.10;2.35;;;;;;;;;;5073213;28;20205;-62
2022/01/12 13:07:17;;;;;;;1.88;1.70;;;;;;;;;;5074364;28;20696;-62
2022/01/12 13:09:43;;;;;;;2.53;1.83;;;;;;;;;;5068850;28;20207;-62
2022/01/12 13:12:09;;;;;;;2.00;1.80;;;;;;;;;;5068391;28;20180;-62
2022/01/12 13:14:42;;;;;;;2.35;1.70;;;;;;;;;;5073457;28;20269;-62
2022/01/12 13:17:08;;;;;;;2.17;1.60;;;;;;;;;;5074457;28;20213;-62
2022/01/12 13:22:30;;;;;;;2.08;1.70;;;;;;;;;;5073689;28;20441;-62
2022/01/12 13:24:57;;;;;;;1.77;1.65;;;;;;;;;;5073614;28;20170;-62
2022/01/12 13:27:27;;;;;;;2.65;1.83;;;;;;;;;;5070941;28;20186;-62
2022/01/12 13:29:53;;;;;;;3.45;1.70;;;;;;;;;;5068702;28;20264;-62
2022/01/12 13:32:20;;;;;;;2.05;1.85;;;;;;;;;;5064830;28;20187;-62
2022/01/12 13:34:55;;;;;;;2.10;1.90;;;;;;;;;;5066017;28;20179;-62
2022/01/12 13:37:22;;;;;;;2.40;1.90;;;;;;;;;;5065119;28;20174;-62
2022/01/12 13:39:48;;;;;;;1.70;1.60;;;;;;;;;;5060556;28;20492;-62
2022/01/12 13:42:14;;;;;;;2.35;1.90;;;;;;;;;;5067919;28;20182;-62
2022/01/12 13:44:40;;;;;;;1.52;1.42;;;;;;;;;;5060688;28;20216;-62
2022/01/12 13:47:21;;;;;;;2.75;1.85;;;;;;;;;;5072977;28;20190;-62
2022/01/12 13:49:47;;;;;;;1.58;1.48;;;;;;;;;;5069010;28;20194;-62
2022/01/12 13:52:14;;;;;;;2.45;1.90;;;;;;;;;;5061546;28;20249;-62
2022/01/12 13:54:41;;;;;;;2.47;1.60;;;;;;;;;;5069845;28;20206;-62
2022/01/12 13:57:09;;;;;;;2.22;1.73;;;;;;;;;;5072969;28;20174;-62
2022/01/12 13:59:48;;;;;;;2.03;1.60;;;;;;;;;;5065020;28;20183;-62
2022/01/12 14:02:16;;;;;;;1.70;1.60;;;;;;;;;;5069191;28;20182;-62
2022/01/12 14:04:46;;;;;;;2.45;1.70;;;;;;;;;;5065537;28;20543;-62
2022/01/12 14:07:22;;;;;;;1.63;1.52;;;;;;;;;;5072921;28;20186;-62
2022/01/12 14:09:55;;;;;;;1.98;1.58;;;;;;;;;;5061093;28;20206;-62
2022/01/12 14:12:24;;;;;;;1.52;1.42;;;;;;;;;;5071672;28;20179;-62
2022/01/12 14:15:00;;;;;;;2.03;1.73;;;;;;;;;;5072244;28;20257;-62
2022/01/12 14:17:26;;;;;;;2.50;1.70;;;;;;;;;;5064095;28;20182;-62
2022/01/12 14:20:03;;;;;;;2.10;1.75;;;;;;;;;;5068092;28;20200;-62
2022/01/12 14:22:29;;;;;;;2.13;1.67;;;;;;;;;;5072157;28;20205;-62
2022/01/12 14:24:55;;;;;;;2.13;1.83;;;;;;;;;;5060451;28;20671;-62
2022/01/12 14:27:21;;;;;;;3.15;1.80;;;;;;;;;;5059585;28;20228;-61
2022/01/12 14:29:47;;;;;;;1.70;1.60;;;;;;;;;;5061333;28;20215;-62
2022/01/12 14:32:13;;;;;;;2.50;1.80;;;;;;;;;;5069292;28;20221;-61
2022/01/12 14:34:39;;;;;;;2.15;1.50;;;;;;;;;;5060327;28;20559;-61
2022/01/12 14:37:06;;;;;;;1.92;1.70;;;;;;;;;;5067899;28;20213;-62
2022/01/12 14:39:32;;;;;;;3.67;1.58;;;;;;;;;;5056700;28;20292;-62
2022/01/12 14:41:58;;;;;;;4.63;1.50;;;;;;;;;;5059711;28;20282;-62
2022/01/12 14:44:28;;;;;;;1.83;1.63;;;;;;;;;;5061253;28;20193;-62
2022/01/12 14:46:54;;;;;;;1.70;1.60;;;;;;;;;;5061123;28;20216;-62
2022/01/12 14:49:20;;;;;;;1.70;1.60;;;;;;;;;;5068160;28;20178;-62
2022/01/12 14:51:46;;;;;;;2.92;2.00;;;;;;;;;;5066412;28;20314;-62
2022/01/12 14:54:13;;;;;;;3.90;1.70;;;;;;;;;;5068738;28;20202;-62
2022/01/12 14:56:39;;;;;;;1.60;1.50;;;;;;;;;;5069064;28;20194;-62
2022/01/12 14:59:05;;;;;;;1.65;1.50;;;;;;;;;;5070437;28;20215;-62
2022/01/12 15:01:31;;;;;;;1.73;1.63;;;;;;;;;;5071934;28;20193;-62
2022/01/12 15:03:57;;;;;;;1.95;1.40;;;;;;;;;;5071056;28;20183;-62
2022/01/12 15:06:23;;;;;;;3.42;1.65;;;;;;;;;;5066529;28;20194;-62
2022/01/12 15:08:49;;;;;;;1.77;1.63;;;;;;;;;;5064239;28;20286;-61
2022/01/12 15:11:15;;;;;;;1.60;1.50;;;;;;;;;;5072263;28;20202;-62
2022/01/12 15:13:54;;;;;;;2.55;1.52;;;;;;;;;;5070289;28;20464;-62
2022/01/12 15:16:20;;;;;;;1.55;1.45;;;;;;;;;;5059766;28;20185;-61
2022/01/12 15:18:46;;;;;;;2.30;1.70;;;;;;;;;;5070552;28;20187;-62
2022/01/12 15:21:12;;;;;;;2.45;1.48;;;;;;;;;;5069080;28;20178;-62
2022/01/12 15:23:38;;;;;;;2.30;1.60;;;;;;;;;;5063637;28;20190;-62
2022/01/12 15:26:04;;;;;;;2.08;1.60;;;;;;;;;;5068936;28;20336;-62
2022/01/12 15:28:31;;;;;;;1.83;1.42;;;;;;;;;;5071091;28;20232;-62
2022/01/12 15:30:57;;;;;;;1.50;1.40;;;;;;;;;;5071290;28;20473;-62
2022/01/12 15:33:23;;;;;;;2.10;1.92;;;;;;;;;;5058920;28;20217;-63
2022/01/12 15:35:50;;;;;;;3.35;1.77;;;;;;;;;;5062673;28;20281;-62
2022/01/12 15:38:16;;;;;;;1.63;1.52;;;;;;;;;;5063234;28;20446;-62
2022/01/12 15:40:43;;;;;;;1.50;1.40;;;;;;;;;;5064451;28;20708;-62
2022/01/12 15:43:09;;;;;;;2.22;1.77;;;;;;;;;;5071733;28;20565;-62
2022/01/12 15:45:37;;;;;;;3.13;1.88;;;;;;;;;;5071463;28;20210;-62
2022/01/12 15:48:03;;;;;;;2.00;1.55;;;;;;;;;;5058501;28;20185;-63
2022/01/12 15:50:33;;;;;;;1.60;1.50;;;;;;;;;;5057736;28;20203;-62
2022/01/12 15:52:59;;;;;;;1.70;1.60;;;;;;;;;;5074317;28;20228;-62
2022/01/12 15:55:25;;;;;;;1.73;1.63;;;;;;;;;;5066372;28;20194;-62
2022/01/12 15:57:52;;;;;;;2.17;1.90;;;;;;;;;;5071042;28;20229;-62
2022/01/12 16:00:18;;;;;;;1.83;1.73;;;;;;;;;;5069543;28;20244;-62
2022/01/12 16:02:44;;;;;;;1.65;1.48;;;;;;;;;;5068594;28;20182;-63
2022/01/12 16:05:10;;;;;;;1.88;1.60;;;;;;;;;;5063273;28;20198;-62
2022/01/12 16:07:36;;;;;;;1.95;1.73;;;;;;;;;;5065578;28;20196;-62
2022/01/12 16:10:02;;;;;;;2.80;1.80;;;;;;;;;;5074701;28;20467;-63